Airfield :
LOGIN :

Register | Disclaimer

   EN    FR    IT 

 










Legend :    VFR   Marginal VFR   IFR   Intensive IFR   Very Intensive IFR
Visi :
Ceiling :
>= 8 km
>= 3000ft
5 to 8 km
1000 to 3000 ft
1500m to 5 km
500 to 1000 ft
800 to 1500m
200 to 500 ft
< 800m
< 200 ft
Symbols :   Thunderstorms  Fog  Heavy snow  Heavy precipitations  Wind > 20 kt
SIGMETs :     Misc.  Thunderstorms  Icing  Turbulence  Mountain Waves  Volcanic Ashes







- Airport Elevation : 1306 ft
- IATA code : ACH


LSZR - Alten Rhein

CURRENT METAR :
  • 201850Z AUTO VRB01KT 8000 -RA BKN021 BKN026 03/02 Q1000

EXPIRED METARs :
  • 201820Z AUTO VRB02KT 9999 -RA BKN023 04/02 Q0999
  • 201750Z 34007KT 9999 -DZ BKN038 05/01 Q0999 NOSIG RMK N
  • 201720Z 34007KT 9999 -DZ BKN038 05/01 Q0999 NOSIG RMK N
  • 201650Z 29003KT 170V340 9999 BKN050 07/M02 Q1000 NOSIG RMK M
  • 201620Z 29003KT 170V340 9999 BKN050 07/M02 Q1000 NOSIG RMK M

TAF TAF LSZR
Valid from the 20 at 15:00 until the 21 at 00:00 UTC


201425Z 2015/2024 23008KT 9999 BKN080
PROB40
TEMPO 2015/2018 19015G30KT
TEMPO 2016/2024 RA
PROB40
TEMPO 2016/2020 3000 RASN BKN008
PROB30
TEMPO 2017/2020 1500 SN BKN007
TEMPO 2018/2024 26015G33KT
ATIS : +41 71 858 51 66
No reported NOTAMs for that airfield.
1 SIGMET reported for the Switzerland FIR (LSAS) :
 
Severe icing
LSAS SIGMET 1 VALID 201645/201900 LSZH
LSAS SWITZERLAND FIR SEV ICE FCST WI N4745 E00916 - N4646 E01054 - N4631 E00847 - N4547 E00744 - N4557 E00602 - N4652 E00757 - N4745 E00916 FL100/180 STNR NC=



MET'MAP, your aeronautical weather chart ! - Copyright ORBIFLY December 2007 - Disclaimer

ORBIFLY MET'MAP TEAM :

Programming & Development : Alexandra Zaïnal
Concept & Development : Baudouin d'Aumeries
Co-Development & Prog : Marc-Olivier Méhu
Technical & hardware support : Manuel Goepfert

Contact : metmap@orbifly.com




SOURCES & CREDITS :

   NOAA